createdAt,value
2023-02-18T00:01:51.686Z,71.55
2023-02-18T00:04:19.618Z,70.64
2023-02-18T00:06:47.663Z,69.96
2023-02-18T00:09:15.520Z,71.35
2023-02-18T00:11:43.601Z,71.25
2023-02-18T00:14:17.418Z,71.14
2023-02-18T00:16:46.080Z,69.97
2023-02-18T00:19:19.465Z,71.60
2023-02-18T00:21:47.958Z,71.80
2023-02-18T00:24:17.096Z,71.82
2023-02-18T00:26:45.637Z,71.72
2023-02-18T00:29:13.584Z,71.97
2023-02-18T00:31:41.703Z,73.03
2023-02-18T00:34:12.298Z,72.65
2023-02-18T00:36:41.084Z,73.33
2023-02-18T00:39:11.364Z,73.06
2023-02-18T00:41:40.126Z,72.96
2023-02-18T00:44:09.290Z,74.51
2023-02-18T00:46:40.820Z,73.26
2023-02-18T00:49:09.797Z,73.63
2023-02-18T00:51:37.804Z,74.86
2023-02-18T00:54:05.810Z,73.79
2023-02-18T00:56:33.901Z,74.90
2023-02-18T00:59:01.842Z,74.07
2023-02-18T01:01:29.860Z,74.28
2023-02-18T01:03:57.974Z,74.14
2023-02-18T01:06:25.868Z,73.65
2023-02-18T01:08:53.864Z,73.67
2023-02-18T01:11:21.713Z,74.21
2023-02-18T01:13:49.740Z,74.55
2023-02-18T01:16:18.059Z,74.13
2023-02-18T01:18:45.996Z,76.01
2023-02-18T01:21:14.067Z,75.10
2023-02-18T01:23:42.560Z,75.31
2023-02-18T01:26:11.636Z,74.64
2023-02-18T01:28:41.608Z,75.18
2023-02-18T01:31:13.415Z,75.43
2023-02-18T01:33:42.670Z,75.41
2023-02-18T01:36:11.999Z,75.73
2023-02-18T01:38:40.058Z,74.25
2023-02-18T01:41:08.584Z,75.82
2023-02-18T01:43:37.386Z,75.47
2023-02-18T01:46:22.370Z,76.22
2023-02-18T01:49:00.277Z,76.29
2023-02-18T01:51:43.624Z,75.66
2023-02-18T01:54:27.416Z,76.07
2023-02-18T01:57:04.942Z,75.37
2023-02-18T01:59:48.822Z,75.06
2023-02-18T02:02:28.474Z,74.84
2023-02-18T02:04:57.143Z,75.90
2023-02-18T02:07:28.622Z,76.00
2023-02-18T02:09:59.737Z,74.38
2023-02-18T02:13:19.221Z,75.67
2023-02-18T02:16:19.343Z,76.13
2023-02-18T02:19:31.028Z,74.97
2023-02-18T02:22:15.924Z,75.06
2023-02-18T02:25:12.271Z,75.97
2023-02-18T02:28:10.420Z,74.96
2023-02-18T02:31:15.936Z,75.92
2023-02-18T02:34:52.956Z,75.31
2023-02-18T02:37:29.232Z,75.27
2023-02-18T02:40:21.149Z,75.70
2023-02-18T02:43:22.215Z,76.13
2023-02-18T02:46:17.664Z,75.95
2023-02-18T02:49:03.280Z,75.74
2023-02-18T02:52:05.562Z,76.23
2023-02-18T02:54:33.556Z,75.50
2023-02-18T02:57:30.390Z,75.57
2023-02-18T03:00:10.014Z,75.50
2023-02-18T03:03:33.515Z,75.57
2023-02-18T03:06:41.465Z,74.66
2023-02-18T03:09:47.111Z,75.04
2023-02-18T03:12:51.909Z,74.79
2023-02-18T03:15:47.876Z,75.71
2023-02-18T03:18:33.083Z,75.52
2023-02-18T03:21:33.110Z,74.43
2023-02-18T03:24:17.955Z,75.57
2023-02-18T03:26:56.228Z,74.58
2023-02-18T03:29:25.983Z,74.62
2023-02-18T03:32:03.012Z,74.47
2023-02-18T03:34:38.226Z,75.19
2023-02-18T03:37:07.322Z,74.95
2023-02-18T03:39:37.992Z,74.23
2023-02-18T03:42:06.102Z,75.36
2023-02-18T03:44:33.990Z,75.15
2023-02-18T03:47:02.234Z,74.34
2023-02-18T03:49:30.229Z,74.93
2023-02-18T03:51:58.103Z,74.70
2023-02-18T03:54:25.967Z,74.15
2023-02-18T03:56:54.865Z,73.91
2023-02-18T03:59:22.778Z,73.60
2023-02-18T04:01:50.643Z,73.85
2023-02-18T04:04:18.595Z,73.94
2023-02-18T04:06:46.541Z,75.01
2023-02-18T04:09:14.484Z,74.77
2023-02-18T04:11:42.548Z,74.70
2023-02-18T04:14:13.521Z,72.95
2023-02-18T04:16:42.618Z,74.08
2023-02-18T04:19:10.946Z,74.88
2023-02-18T04:21:38.852Z,73.00
2023-02-18T04:24:06.910Z,74.19
2023-02-18T04:26:34.805Z,74.21
2023-02-18T04:29:02.806Z,75.12
2023-02-18T04:31:30.777Z,73.33
2023-02-18T04:33:58.776Z,74.39
2023-02-18T04:36:27.161Z,73.99
2023-02-18T04:38:55.008Z,74.00
2023-02-18T04:41:23.025Z,73.55
2023-02-18T04:43:50.937Z,73.22
2023-02-18T04:46:18.876Z,74.11
2023-02-18T04:48:46.853Z,74.13
2023-02-18T04:51:14.757Z,73.25
2023-02-18T04:53:42.879Z,73.52
2023-02-18T04:56:12.946Z,73.72
2023-02-18T04:58:40.801Z,73.75
2023-02-18T05:01:08.704Z,73.38
2023-02-18T05:03:36.594Z,73.50
2023-02-18T05:06:04.930Z,74.07
2023-02-18T05:08:32.901Z,73.51
2023-02-18T05:11:00.778Z,73.79
2023-02-18T05:13:28.629Z,73.91
2023-02-18T05:15:56.464Z,73.19
2023-02-18T05:18:24.382Z,73.13
2023-02-18T05:20:52.204Z,73.07
2023-02-18T05:23:21.304Z,72.85
2023-02-18T05:25:49.230Z,73.35
2023-02-18T05:28:17.250Z,72.19
2023-02-18T05:30:45.111Z,72.93
2023-02-18T05:33:13.283Z,72.02
2023-02-18T05:35:41.344Z,72.30
2023-02-18T05:38:09.979Z,71.93
2023-02-18T05:40:38.858Z,71.34
2023-02-18T05:43:06.822Z,71.06
2023-02-18T05:45:36.064Z,71.15
2023-02-18T05:48:04.543Z,70.67
2023-02-18T05:50:32.904Z,70.94
2023-02-18T05:53:00.790Z,70.33
2023-02-18T05:55:28.752Z,69.67
2023-02-18T05:57:56.791Z,70.81
2023-02-18T06:00:25.476Z,70.06
2023-02-18T06:02:53.435Z,69.60
2023-02-18T06:05:21.315Z,69.09
2023-02-18T06:07:49.280Z,69.56
2023-02-18T06:10:18.444Z,69.47
2023-02-18T06:12:46.576Z,69.52
2023-02-18T06:15:14.411Z,70.63
2023-02-18T06:17:42.286Z,69.25
2023-02-18T06:20:11.198Z,69.16
2023-02-18T06:22:39.083Z,69.72
2023-02-18T06:25:07.368Z,69.89
2023-02-18T06:27:35.232Z,69.41
2023-02-18T06:30:03.400Z,68.50
2023-02-18T06:32:31.229Z,69.33
2023-02-18T06:34:59.100Z,68.85
2023-02-18T06:37:27.061Z,68.91
2023-02-18T06:39:54.949Z,68.82
2023-02-18T06:42:22.790Z,69.11
2023-02-18T06:44:52.953Z,68.77
2023-02-18T06:47:21.215Z,68.68
2023-02-18T06:49:49.114Z,67.79
2023-02-18T06:52:16.942Z,69.06
2023-02-18T06:54:46.021Z,69.49
2023-02-18T06:57:13.904Z,68.69
2023-02-18T06:59:41.820Z,68.56
2023-02-18T07:02:13.362Z,68.75
2023-02-18T07:04:41.308Z,67.75
2023-02-18T07:07:09.154Z,67.57
2023-02-18T07:09:37.092Z,67.71
2023-02-18T07:12:05.545Z,68.86
2023-02-18T07:14:33.403Z,68.58
2023-02-18T07:17:01.346Z,67.70
2023-02-18T07:19:29.209Z,67.53
2023-02-18T07:21:57.771Z,67.37
2023-02-18T07:24:25.988Z,67.54
2023-02-18T07:26:53.820Z,68.30
2023-02-18T07:29:21.721Z,67.65
2023-02-18T07:31:49.820Z,67.51
2023-02-18T07:34:17.759Z,67.33
2023-02-18T07:36:48.839Z,68.42
2023-02-18T07:39:20.664Z,68.44
2023-02-18T07:41:48.806Z,68.69
2023-02-18T07:44:16.780Z,68.25
2023-02-18T07:46:47.221Z,67.15
2023-02-18T07:49:15.548Z,67.91
2023-02-18T07:51:43.460Z,66.98
2023-02-18T07:54:11.313Z,67.23
2023-02-18T07:56:39.388Z,67.93
2023-02-18T07:59:07.326Z,67.49
2023-02-18T08:01:35.241Z,67.89
2023-02-18T08:04:03.602Z,68.33
2023-02-18T08:06:46.173Z,68.24
2023-02-18T08:09:15.660Z,69.06
2023-02-18T08:11:44.684Z,69.38
2023-02-18T08:14:12.910Z,67.57
2023-02-18T08:16:40.994Z,67.66
2023-02-18T08:19:09.059Z,68.36
2023-02-18T08:21:36.919Z,68.96
2023-02-18T08:24:05.061Z,68.40
2023-02-18T08:26:33.013Z,68.62
2023-02-18T08:29:00.891Z,68.52
2023-02-18T08:31:31.156Z,68.83
2023-02-18T08:34:00.962Z,69.60
2023-02-18T08:36:29.559Z,68.94
2023-02-18T08:38:58.385Z,69.66
2023-02-18T08:41:26.382Z,69.61
2023-02-18T08:43:54.547Z,69.60
2023-02-18T08:46:27.283Z,70.08
2023-02-18T08:49:04.658Z,71.63
2023-02-18T08:51:32.673Z,70.91
2023-02-18T08:54:00.618Z,71.67
2023-02-18T08:56:28.518Z,71.48
2023-02-18T08:58:56.370Z,72.41
2023-02-18T09:01:24.322Z,72.82
2023-02-18T09:03:52.330Z,73.59
2023-02-18T09:06:20.273Z,73.21
2023-02-18T09:08:48.319Z,74.62
2023-02-18T09:11:17.772Z,74.62
2023-02-18T09:13:46.584Z,74.70
2023-02-18T09:16:18.604Z,74.49
2023-02-18T09:18:48.186Z,74.85
2023-02-18T09:21:20.590Z,74.25
2023-02-18T09:23:49.907Z,74.95
2023-02-18T09:26:22.941Z,74.44
2023-02-18T09:28:53.169Z,75.10
2023-02-18T09:31:25.893Z,75.35
2023-02-18T09:34:02.963Z,75.11
2023-02-18T09:36:31.652Z,75.58
2023-02-18T09:38:59.829Z,76.04
2023-02-18T09:41:48.914Z,76.93
2023-02-18T09:44:40.057Z,76.54
2023-02-18T09:47:45.006Z,76.00
2023-02-18T09:50:33.734Z,76.75
2023-02-18T09:53:03.979Z,76.75
2023-02-18T09:55:40.990Z,76.85
2023-02-18T09:58:25.078Z,77.30
2023-02-18T10:01:11.203Z,77.43
2023-02-18T10:03:40.545Z,77.40
2023-02-18T10:06:25.494Z,77.63
2023-02-18T10:08:55.283Z,77.26
2023-02-18T10:11:39.881Z,77.37
2023-02-18T10:14:14.522Z,77.58
2023-02-18T10:16:46.057Z,77.12
2023-02-18T10:19:38.388Z,78.46
2023-02-18T10:22:09.536Z,78.49
2023-02-18T10:25:05.944Z,78.94
2023-02-18T10:27:38.856Z,79.36
2023-02-18T10:30:51.296Z,79.34
2023-02-18T10:33:35.926Z,78.78
2023-02-18T10:36:38.772Z,79.80
2023-02-18T10:39:32.212Z,79.49
2023-02-18T10:42:39.816Z,79.53
2023-02-18T10:45:53.019Z,81.30
2023-02-18T10:48:28.493Z,80.60
2023-02-18T10:50:59.800Z,79.49
2023-02-18T10:53:40.427Z,79.65
2023-02-18T10:56:09.320Z,80.80
2023-02-18T10:58:47.028Z,80.74
2023-02-18T11:01:21.198Z,80.21
2023-02-18T11:04:15.118Z,80.24
2023-02-18T11:06:51.323Z,79.81
2023-02-18T11:10:16.896Z,80.30
2023-02-18T11:12:56.243Z,80.84
2023-02-18T11:15:29.469Z,80.82
2023-02-18T11:18:13.414Z,80.12
2023-02-18T11:20:41.555Z,81.08
2023-02-18T11:23:21.849Z,80.59
2023-02-18T11:26:12.047Z,81.17
2023-02-18T11:28:51.451Z,81.57
2023-02-18T11:31:48.079Z,80.88
2023-02-18T11:34:29.336Z,80.69
2023-02-18T11:37:19.356Z,80.61
2023-02-18T11:39:53.025Z,81.17
2023-02-18T11:42:26.713Z,81.14
2023-02-18T11:45:00.598Z,81.18
2023-02-18T11:47:37.586Z,81.24
2023-02-18T11:50:17.503Z,81.68
2023-02-18T11:52:51.328Z,82.01
2023-02-18T11:55:23.134Z,83.29
2023-02-18T11:58:03.678Z,83.77
2023-02-18T12:00:53.029Z,83.54
2023-02-18T12:04:17.553Z,84.18
2023-02-18T12:07:17.337Z,85.83
2023-02-18T12:09:55.093Z,86.55
2023-02-18T12:12:53.723Z,89.47
2023-02-18T12:16:03.643Z,88.02
2023-02-18T12:18:53.058Z,89.22
2023-02-18T12:22:10.378Z,86.20
2023-02-18T12:24:56.017Z,89.06
2023-02-18T12:28:16.233Z,88.39
2023-02-18T12:31:17.209Z,87.30
2023-02-18T12:34:27.792Z,87.60
2023-02-18T12:37:32.424Z,87.09
2023-02-18T12:40:32.025Z,86.35
2023-02-18T12:43:21.221Z,86.00
2023-02-18T12:46:49.477Z,85.70
2023-02-18T12:49:31.909Z,86.03
2023-02-18T12:52:08.965Z,86.46
2023-02-18T12:55:20.426Z,86.03
2023-02-18T12:58:21.103Z,86.35
2023-02-18T13:01:30.325Z,86.88
2023-02-18T13:04:31.080Z,86.37
2023-02-18T13:07:58.515Z,86.27
2023-02-18T13:10:38.388Z,87.57
2023-02-18T13:13:21.068Z,88.06
2023-02-18T13:16:09.205Z,87.79
2023-02-18T13:19:03.645Z,88.11
2023-02-18T13:21:35.274Z,88.12
2023-02-18T13:24:11.941Z,88.08
2023-02-18T13:26:50.966Z,88.21
2023-02-18T13:30:00.241Z,88.32
2023-02-18T13:32:59.615Z,89.35
2023-02-18T13:36:16.581Z,88.09
2023-02-18T13:39:19.264Z,88.43
2023-02-18T13:41:51.117Z,87.55
2023-02-18T13:44:24.603Z,87.33
2023-02-18T13:46:59.092Z,88.72
2023-02-18T13:49:38.085Z,87.74
2023-02-18T13:52:07.439Z,86.63
2023-02-18T13:54:46.833Z,87.95
2023-02-18T13:57:22.964Z,88.02
2023-02-18T14:00:06.069Z,87.42
2023-02-18T14:02:37.225Z,87.81
2023-02-18T14:05:40.786Z,87.83
2023-02-18T14:08:39.218Z,87.96
2023-02-18T14:11:13.671Z,87.13
2023-02-18T14:14:27.395Z,87.54
2023-02-18T14:17:22.967Z,87.87
2023-02-18T14:19:59.926Z,88.70
2023-02-18T14:22:50.402Z,88.20
2023-02-18T14:25:39.264Z,87.24
2023-02-18T14:28:36.663Z,88.59
2023-02-18T14:31:14.023Z,88.58
2023-02-18T14:33:59.597Z,89.52
2023-02-18T14:37:24.351Z,88.59
2023-02-18T14:40:36.091Z,89.83
2023-02-18T14:43:59.682Z,88.96
2023-02-18T14:47:09.374Z,87.28
2023-02-18T14:49:59.780Z,88.39
2023-02-18T14:52:48.804Z,88.41
2023-02-18T14:55:28.460Z,87.82
2023-02-18T14:58:16.778Z,88.19
2023-02-18T15:00:47.406Z,88.23
2023-02-18T15:03:20.435Z,88.56
2023-02-18T15:05:51.437Z,89.11
2023-02-18T15:08:26.277Z,88.52
2023-02-18T15:11:06.218Z,89.90
2023-02-18T15:13:44.254Z,89.14
2023-02-18T15:16:34.409Z,90.96
2023-02-18T15:19:13.619Z,90.96
2023-02-18T15:21:53.052Z,91.08
2023-02-18T15:24:38.063Z,90.65
2023-02-18T15:27:21.987Z,89.91
2023-02-18T15:30:08.604Z,89.85
2023-02-18T15:32:53.366Z,88.94
2023-02-18T15:35:29.113Z,89.14
2023-02-18T15:38:01.332Z,89.06
2023-02-18T15:41:02.791Z,88.87
2023-02-18T15:44:28.722Z,88.74
2023-02-18T15:47:38.692Z,89.11
2023-02-18T15:50:35.601Z,88.65
2023-02-18T15:54:00.660Z,89.14
2023-02-18T16:00:42.723Z,90.62
2023-02-18T16:03:42.102Z,89.73
2023-02-18T16:06:35.286Z,90.45
2023-02-18T16:09:29.678Z,89.09
2023-02-18T16:12:03.553Z,89.63
2023-02-18T16:14:50.640Z,89.82
2023-02-18T16:17:26.491Z,89.90
2023-02-18T16:20:22.012Z,89.63
2023-02-18T16:22:58.801Z,89.61
2023-02-18T16:25:51.672Z,88.60
2023-02-18T16:28:34.007Z,89.78
2023-02-18T16:31:09.663Z,89.18
2023-02-18T16:33:40.433Z,89.28
2023-02-18T16:36:16.387Z,89.60
2023-02-18T16:38:49.522Z,88.58
2023-02-18T16:41:20.514Z,88.30
2023-02-18T16:43:54.041Z,88.43
2023-02-18T16:46:24.446Z,89.09
2023-02-18T16:48:56.297Z,89.49
2023-02-18T16:51:35.140Z,89.34
2023-02-18T16:54:03.672Z,88.77
2023-02-18T16:56:36.155Z,89.32
2023-02-18T16:59:05.035Z,88.74
2023-02-18T17:01:38.185Z,87.59
2023-02-18T17:04:07.404Z,88.09
2023-02-18T17:06:35.297Z,88.56
2023-02-18T17:09:15.074Z,88.26
2023-02-18T17:11:52.190Z,88.79
2023-02-18T17:14:22.662Z,88.84
2023-02-18T17:16:54.395Z,88.94
2023-02-18T17:19:22.729Z,87.64
2023-02-18T17:21:50.789Z,88.12
2023-02-18T17:24:19.584Z,88.34
2023-02-18T17:26:47.901Z,86.76
2023-02-18T17:29:15.953Z,86.74
2023-02-18T17:31:47.311Z,86.77
2023-02-18T17:34:27.751Z,86.96
2023-02-18T17:36:55.682Z,86.46
2023-02-18T17:39:24.530Z,86.89
2023-02-18T17:41:52.445Z,86.03
2023-02-18T17:44:24.003Z,86.31
2023-02-18T17:46:55.107Z,86.53
2023-02-18T17:49:23.363Z,88.10
2023-02-18T17:51:52.500Z,87.67
2023-02-18T17:54:25.696Z,86.01
2023-02-18T17:56:55.636Z,86.97
2023-02-18T17:59:23.508Z,86.47
2023-02-18T18:01:51.397Z,87.33
2023-02-18T18:04:19.627Z,86.95
2023-02-18T18:06:47.689Z,86.26
2023-02-18T18:09:15.544Z,85.94
2023-02-18T18:11:44.016Z,86.24
2023-02-18T18:14:15.144Z,86.86
2023-02-18T18:16:43.206Z,86.24
2023-02-18T18:19:11.142Z,86.96
2023-02-18T18:21:39.179Z,86.63
2023-02-18T18:24:07.222Z,85.94
2023-02-18T18:26:35.104Z,86.67
2023-02-18T18:29:02.977Z,87.73
2023-02-18T18:31:32.199Z,87.58
2023-02-18T18:34:01.305Z,86.80
2023-02-18T18:36:29.205Z,85.30
2023-02-18T18:38:57.376Z,86.21
2023-02-18T18:41:25.192Z,86.24
2023-02-18T18:43:53.352Z,84.10
2023-02-18T18:46:21.423Z,84.00
2023-02-18T18:48:49.344Z,85.32
2023-02-18T18:51:25.142Z,84.44
2023-02-18T18:53:52.983Z,85.60
2023-02-18T18:56:21.870Z,85.11
2023-02-18T18:58:51.251Z,84.04
2023-02-18T19:01:26.905Z,84.34
2023-02-18T19:03:55.007Z,84.72
2023-02-18T19:06:23.053Z,85.60
2023-02-18T19:08:50.987Z,85.30
2023-02-18T19:11:18.844Z,84.84
2023-02-18T19:13:46.760Z,84.11
2023-02-18T19:16:30.766Z,85.09
2023-02-18T19:18:58.630Z,83.65
2023-02-18T19:21:26.476Z,83.18
2023-02-18T19:23:54.719Z,83.67
2023-02-18T19:26:23.232Z,83.31
2023-02-18T19:28:51.140Z,83.47
2023-02-18T19:31:23.989Z,84.68
2023-02-18T19:33:59.202Z,83.91
2023-02-18T19:36:27.009Z,83.42
2023-02-18T19:38:54.863Z,84.36
2023-02-18T19:41:22.723Z,84.65
2023-02-18T19:43:50.601Z,84.70
2023-02-18T19:46:19.119Z,84.20
2023-02-18T19:48:52.560Z,83.55
2023-02-18T19:51:24.744Z,84.21
2023-02-18T19:53:52.922Z,83.30
2023-02-18T19:56:21.386Z,83.03
2023-02-18T19:58:49.293Z,83.04
2023-02-18T20:01:18.266Z,83.13
2023-02-18T20:03:47.149Z,83.54
2023-02-18T20:06:19.205Z,84.00
2023-02-18T20:08:47.899Z,83.76
2023-02-18T20:11:16.406Z,82.14
2023-02-18T20:13:44.277Z,84.04
2023-02-18T20:16:12.183Z,83.77
2023-02-18T20:18:40.146Z,82.27
2023-02-18T20:21:12.153Z,82.78
2023-02-18T20:23:41.116Z,83.82
2023-02-18T20:26:12.156Z,83.00
2023-02-18T20:28:40.664Z,84.62
2023-02-18T20:31:13.063Z,83.33
2023-02-18T20:33:42.565Z,82.82
2023-02-18T20:36:14.412Z,82.84
2023-02-18T20:38:42.549Z,83.02
2023-02-18T20:41:14.518Z,82.16
2023-02-18T20:43:42.513Z,82.91
2023-02-18T20:46:17.925Z,81.73
2023-02-18T20:48:46.951Z,81.37
2023-02-18T20:51:20.421Z,80.69
2023-02-18T20:53:49.616Z,81.05
2023-02-18T20:56:21.478Z,82.29
2023-02-18T20:58:49.473Z,83.71
2023-02-18T21:01:18.969Z,83.12
2023-02-18T21:03:48.265Z,82.72
2023-02-18T21:06:20.834Z,81.90
2023-02-18T21:08:53.568Z,81.81
2023-02-18T21:11:26.315Z,82.13
2023-02-18T21:13:57.004Z,84.15
2023-02-18T21:16:28.625Z,83.00
2023-02-18T21:18:56.514Z,83.21
2023-02-18T21:21:24.852Z,82.18
2023-02-18T21:23:53.466Z,83.21
2023-02-18T21:26:26.408Z,82.71
2023-02-18T21:29:01.038Z,83.38
2023-02-18T21:31:39.465Z,81.85
2023-02-18T21:34:11.976Z,81.93
2023-02-18T21:36:41.338Z,82.84
2023-02-18T21:39:11.140Z,82.38
2023-02-18T21:41:41.102Z,83.17
2023-02-18T21:44:10.310Z,81.23
2023-02-18T21:46:39.024Z,82.75
2023-02-18T21:49:10.081Z,82.84
2023-02-18T21:51:58.666Z,81.30
2023-02-18T21:54:47.069Z,82.84
2023-02-18T21:57:19.737Z,81.84
2023-02-18T21:59:50.235Z,81.39
2023-02-18T22:02:30.922Z,82.28
2023-02-18T22:05:02.046Z,82.36
2023-02-18T22:07:30.377Z,82.89
2023-02-18T22:09:58.261Z,82.30
2023-02-18T22:12:26.403Z,82.18
2023-02-18T22:14:54.274Z,81.58
2023-02-18T22:17:22.259Z,81.89
2023-02-18T22:19:50.175Z,82.43
2023-02-18T22:22:18.234Z,82.43
2023-02-18T22:24:46.108Z,83.21
2023-02-18T22:27:15.931Z,82.24
2023-02-18T22:29:43.774Z,81.26
2023-02-18T22:32:11.650Z,82.55
2023-02-18T22:34:40.151Z,81.84
2023-02-18T22:37:08.125Z,81.42
2023-02-18T22:39:36.131Z,81.46
2023-02-18T22:42:04.527Z,81.97
2023-02-18T22:44:32.515Z,82.12
2023-02-18T22:47:00.391Z,81.33
2023-02-18T22:49:28.273Z,80.82
2023-02-18T22:51:56.205Z,81.50
2023-02-18T22:54:24.124Z,80.67
2023-02-18T22:56:53.785Z,81.81
2023-02-18T22:59:21.671Z,81.94
2023-02-18T23:01:49.969Z,80.89
2023-02-18T23:04:20.524Z,81.05
2023-02-18T23:06:49.621Z,81.53
2023-02-18T23:09:25.095Z,80.32
2023-02-18T23:11:58.032Z,79.58
2023-02-18T23:14:28.274Z,79.03
2023-02-18T23:17:13.057Z,79.09
2023-02-18T23:19:43.316Z,80.39
2023-02-18T23:22:15.155Z,80.37
2023-02-18T23:24:45.473Z,80.42
2023-02-18T23:27:15.367Z,80.88
2023-02-18T23:29:43.709Z,79.57
2023-02-18T23:32:11.834Z,79.69
2023-02-18T23:34:39.660Z,80.20
2023-02-18T23:37:07.605Z,79.65
2023-02-18T23:39:36.820Z,79.30
2023-02-18T23:42:04.847Z,79.78
2023-02-18T23:44:32.723Z,80.04
2023-02-18T23:47:00.576Z,81.05
2023-02-18T23:49:28.828Z,79.93
2023-02-18T23:51:58.057Z,79.88
2023-02-18T23:54:26.143Z,80.00
2023-02-18T23:56:54.061Z,80.38
2023-02-18T23:59:22.004Z,79.07
